Airfield :
LOGIN :

Register | Disclaimer

   EN    FR    IT 

 










Legend :    VFR   Marginal VFR   IFR   Intensive IFR   Very Intensive IFR
Visi :
Ceiling :
>= 8 km
>= 3000ft
5 to 8 km
1000 to 3000 ft
1500m to 5 km
500 to 1000 ft
800 to 1500m
200 to 500 ft
< 800m
< 200 ft
Symbols :   Thunderstorms  Fog  Heavy snow  Heavy precipitations  Wind > 20 kt
SIGMETs :     Misc.  Thunderstorms  Icing  Turbulence  Mountain Waves  Volcanic Ashes







- Airport Elevation : 266 ft
- IATA code : NCL
- Download approach charts


EGNT - Newcastle

CURRENT METAR :
  • 192020Z 23011KT 200V260 CAVOK 12/04 Q1004

EXPIRED METARs :
  • 191950Z 23010G20KT 200V260 CAVOK 12/03 Q1004
  • 191920Z 24012KT 200V280 9999 FEW022 12/03 Q1003
  • 191850Z 25017KT 200V270 9999 FEW022 12/03 Q1003
  • 191820Z 24017G28KT 210V280 9999 FEW022 13/03 Q1002
  • 191750Z 24019G31KT 200V270 9999 FEW030 13/03 Q1002

TAF AMD TAF EGNT
Valid from the 19 at 19:00 until the 20 at 18:00 UTC


191929Z 1919/2018 23015KT 9999 FEW030
PROB40
TEMPO 1919/2004 23018G28KT
BECMG 2004/2007 17007KT
BECMG 2007/2010 24012KT
BECMG 2013/2016 VRB03KT
BECMG 2016/2018 10010KT 6000 RA
TEMPO 2016/2018 4000 +RA BKN012
PROB30
TEMPO 2016/2018 BKN006
ATIS : +44 191 214 3400
No reported NOTAMs for that airfield.
2 SIGMETs reported for the Scottish FIR (EGPX) :
 
Severe mountain waves
EGPX SIGMET 12 VALID 191700/192100 EGRR
EGPX SCOTTISH FIR SEV MTW FCST WI N5500 W00100 - N5500 W00530 - N5355 W00530 - N5442 W00919 - N5828 W00436 - N5848 W00050 - N5500 E00020 - N5500 W00100 FL030/250 STNR NC=
Severe turbulence
EGPX SIGMET 11 VALID 191700/192100 EGRR
EGPX SCOTTISH FIR SEV TURB FCST SE OF LINE N5851 W01000 - N6100 W00026 SFC/FL060 MOV N 10KT WKN=



MET'MAP, your aeronautical weather chart ! - Copyright ORBIFLY December 2007 - Disclaimer

ORBIFLY MET'MAP TEAM :

Programming & Development : Alexandra Zaïnal
Concept & Development : Baudouin d'Aumeries
Co-Development & Prog : Marc-Olivier Méhu
Technical & hardware support : Manuel Goepfert

Contact : metmap@orbifly.com




SOURCES & CREDITS :

   NOAA